sensor_id;sensor_type;location;lat;lon;timestamp;temperature;humidity
78184;DHT22;67442;44.570;18.610;2024-03-02T05:21:21;5.10;99.90
78184;DHT22;67442;44.570;18.610;2024-03-02T05:23:49;5.20;99.90
78184;DHT22;67442;44.570;18.610;2024-03-02T05:26:20;5.20;99.90
78184;DHT22;67442;44.570;18.610;2024-03-02T05:28:48;5.00;99.90
78184;DHT22;67442;44.570;18.610;2024-03-02T05:31:19;4.80;99.90
78184;DHT22;67442;44.570;18.610;2024-03-02T05:33:47;4.80;99.90
78184;DHT22;67442;44.570;18.610;2024-03-02T05:36:14;4.60;99.90
78184;DHT22;67442;44.570;18.610;2024-03-02T05:38:42;4.60;99.90
78184;DHT22;67442;44.570;18.610;2024-03-02T05:41:10;4.40;99.90
78184;DHT22;67442;44.570;18.610;2024-03-02T05:43:38;4.60;99.90
78184;DHT22;67442;44.570;18.610;2024-03-02T05:46:05;4.60;99.90
78184;DHT22;67442;44.570;18.610;2024-03-02T05:48:33;4.50;99.90
78184;DHT22;67442;44.570;18.610;2024-03-02T05:51:05;4.50;99.90
78184;DHT22;67442;44.570;18.610;2024-03-02T05:53:36;4.70;99.90
78184;DHT22;67442;44.570;18.610;2024-03-02T05:56:07;4.90;99.90
78184;DHT22;67442;44.570;18.610;2024-03-02T05:58:38;5.20;99.90
78184;DHT22;67442;44.570;18.610;2024-03-02T06:01:20;5.20;99.90
78184;DHT22;67442;44.570;18.610;2024-03-02T06:03:57;5.30;99.90
78184;DHT22;67442;44.570;18.610;2024-03-02T06:06:25;5.20;99.90
78184;DHT22;67442;44.570;18.610;2024-03-02T06:08:55;5.20;99.90
78184;DHT22;67442;44.570;18.610;2024-03-02T06:11:27;5.10;99.90
78184;DHT22;67442;44.570;18.610;2024-03-02T06:14:04;5.20;99.90
78184;DHT22;67442;44.570;18.610;2024-03-02T06:16:35;5.30;99.90
78184;DHT22;67442;44.570;18.610;2024-03-02T06:19:06;5.30;99.90
78184;DHT22;67442;44.570;18.610;2024-03-02T06:21:34;5.40;99.90
78184;DHT22;67442;44.570;18.610;2024-03-02T06:24:01;5.60;99.90
78184;DHT22;67442;44.570;18.610;2024-03-02T06:26:29;5.90;99.90
78184;DHT22;67442;44.570;18.610;2024-03-02T06:28:58;5.90;99.90
78184;DHT22;67442;44.570;18.610;2024-03-02T06:31:26;5.90;99.90
78184;DHT22;67442;44.570;18.610;2024-03-02T06:33:53;6.30;99.90
78184;DHT22;67442;44.570;18.610;2024-03-02T06:36:25;6.30;99.90
78184;DHT22;67442;44.570;18.610;2024-03-02T06:38:56;6.20;99.90
78184;DHT22;67442;44.570;18.610;2024-03-02T06:41:26;6.30;99.90
78184;DHT22;67442;44.570;18.610;2024-03-02T06:43:54;6.30;99.90
78184;DHT22;67442;44.570;18.610;2024-03-02T06:46:26;6.40;99.90
78184;DHT22;67442;44.570;18.610;2024-03-02T06:48:53;6.60;99.90
78184;DHT22;67442;44.570;18.610;2024-03-02T06:51:20;6.80;99.90
78184;DHT22;67442;44.570;18.610;2024-03-02T06:53:48;7.00;99.90
78184;DHT22;67442;44.570;18.610;2024-03-02T06:56:16;7.10;99.90
78184;DHT22;67442;44.570;18.610;2024-03-02T06:58:52;7.20;99.90
78184;DHT22;67442;44.570;18.610;2024-03-02T07:01:23;7.40;99.90
78184;DHT22;67442;44.570;18.610;2024-03-02T07:03:52;7.60;99.90
78184;DHT22;67442;44.570;18.610;2024-03-02T07:06:20;7.80;99.90
78184;DHT22;67442;44.570;18.610;2024-03-02T07:08:47;7.80;99.90
78184;DHT22;67442;44.570;18.610;2024-03-02T07:11:15;7.90;99.90
78184;DHT22;67442;44.570;18.610;2024-03-02T07:13:42;8.00;99.90
78184;DHT22;67442;44.570;18.610;2024-03-02T07:16:13;8.10;99.90
78184;DHT22;67442;44.570;18.610;2024-03-02T07:18:59;8.20;99.90
78184;DHT22;67442;44.570;18.610;2024-03-02T07:21:28;8.30;99.90
78184;DHT22;67442;44.570;18.610;2024-03-02T07:23:56;8.40;99.90
78184;DHT22;67442;44.570;18.610;2024-03-02T07:26:23;8.60;99.90
78184;DHT22;67442;44.570;18.610;2024-03-02T07:28:55;8.70;99.90
78184;DHT22;67442;44.570;18.610;2024-03-02T07:31:22;9.10;99.90
78184;DHT22;67442;44.570;18.610;2024-03-02T07:33:50;9.30;99.90
78184;DHT22;67442;44.570;18.610;2024-03-02T07:36:18;9.70;99.90
78184;DHT22;67442;44.570;18.610;2024-03-02T07:38:46;10.10;99.90
78184;DHT22;67442;44.570;18.610;2024-03-02T07:41:19;10.50;99.90
78184;DHT22;67442;44.570;18.610;2024-03-02T07:43:50;10.90;99.90
78184;DHT22;67442;44.570;18.610;2024-03-02T07:46:18;10.90;99.90
78184;DHT22;67442;44.570;18.610;2024-03-02T07:48:49;10.80;99.90
78184;DHT22;67442;44.570;18.610;2024-03-02T07:51:18;11.00;99.90
78184;DHT22;67442;44.570;18.610;2024-03-02T07:53:46;11.10;99.90
78184;DHT22;67442;44.570;18.610;2024-03-02T07:56:13;11.30;99.90
78184;DHT22;67442;44.570;18.610;2024-03-02T07:58:48;11.40;99.90
78184;DHT22;67442;44.570;18.610;2024-03-02T08:01:16;11.50;99.90
78184;DHT22;67442;44.570;18.610;2024-03-02T08:03:44;11.50;99.90
78184;DHT22;67442;44.570;18.610;2024-03-02T08:06:16;11.60;99.90
78184;DHT22;67442;44.570;18.610;2024-03-02T08:08:44;11.70;99.90
78184;DHT22;67442;44.570;18.610;2024-03-02T08:11:11;11.90;99.90
78184;DHT22;67442;44.570;18.610;2024-03-02T08:13:43;12.10;99.90
78184;DHT22;67442;44.570;18.610;2024-03-02T08:16:10;12.20;99.90
78184;DHT22;67442;44.570;18.610;2024-03-02T08:18:38;12.10;99.90
78184;DHT22;67442;44.570;18.610;2024-03-02T08:21:09;12.30;99.90
78184;DHT22;67442;44.570;18.610;2024-03-02T08:23:37;12.50;99.90
78184;DHT22;67442;44.570;18.610;2024-03-02T08:26:10;12.80;99.90
78184;DHT22;67442;44.570;18.610;2024-03-02T08:28:40;12.90;99.90
78184;DHT22;67442;44.570;18.610;2024-03-02T08:31:11;13.10;99.90
78184;DHT22;67442;44.570;18.610;2024-03-02T08:33:38;13.20;99.90
78184;DHT22;67442;44.570;18.610;2024-03-02T08:36:07;13.30;99.90
78184;DHT22;67442;44.570;18.610;2024-03-02T08:38:39;13.30;99.90
78184;DHT22;67442;44.570;18.610;2024-03-02T08:41:07;13.60;99.40
78184;DHT22;67442;44.570;18.610;2024-03-02T08:43:40;13.70;99.50
78184;DHT22;67442;44.570;18.610;2024-03-02T08:46:07;14.00;99.30
78184;DHT22;67442;44.570;18.610;2024-03-02T08:48:34;14.20;98.60
78184;DHT22;67442;44.570;18.610;2024-03-02T08:51:06;14.60;98.10
78184;DHT22;67442;44.570;18.610;2024-03-02T08:53:34;14.60;96.90
78184;DHT22;67442;44.570;18.610;2024-03-02T08:56:01;14.60;95.40
78184;DHT22;67442;44.570;18.610;2024-03-02T08:58:29;14.60;96.20
78184;DHT22;67442;44.570;18.610;2024-03-02T09:00:56;14.80;96.40
78184;DHT22;67442;44.570;18.610;2024-03-02T09:03:28;14.90;94.00
78184;DHT22;67442;44.570;18.610;2024-03-02T09:05:55;14.90;93.00
78184;DHT22;67442;44.570;18.610;2024-03-02T09:08:27;14.70;87.60
78184;DHT22;67442;44.570;18.610;2024-03-02T09:10:58;14.80;80.40
78184;DHT22;67442;44.570;18.610;2024-03-02T09:13:30;14.90;80.10
78184;DHT22;67442;44.570;18.610;2024-03-02T09:15:58;14.90;78.00
78184;DHT22;67442;44.570;18.610;2024-03-02T09:18:25;14.80;79.40
78184;DHT22;67442;44.570;18.610;2024-03-02T09:20:56;14.90;80.10
78184;DHT22;67442;44.570;18.610;2024-03-02T09:23:23;15.20;87.70
78184;DHT22;67442;44.570;18.610;2024-03-02T09:25:54;15.50;81.00
78184;DHT22;67442;44.570;18.610;2024-03-02T09:28:26;15.60;78.50
78184;DHT22;67442;44.570;18.610;2024-03-02T09:30:53;15.60;78.50
78184;DHT22;67442;44.570;18.610;2024-03-02T09:33:21;15.80;74.10
78184;DHT22;67442;44.570;18.610;2024-03-02T09:35:49;15.90;74.40
78184;DHT22;67442;44.570;18.610;2024-03-02T09:38:16;15.90;72.60
78184;DHT22;67442;44.570;18.610;2024-03-02T09:40:44;15.90;71.70
78184;DHT22;67442;44.570;18.610;2024-03-02T09:43:11;15.90;72.90
78184;DHT22;67442;44.570;18.610;2024-03-02T09:45:40;16.10;71.20
78184;DHT22;67442;44.570;18.610;2024-03-02T09:48:08;16.10;71.10
78184;DHT22;67442;44.570;18.610;2024-03-02T09:50:36;16.20;65.00
78184;DHT22;67442;44.570;18.610;2024-03-02T09:53:03;16.20;67.60
78184;DHT22;67442;44.570;18.610;2024-03-02T09:55:30;16.20;64.00
78184;DHT22;67442;44.570;18.610;2024-03-02T09:57:58;16.10;62.00
78184;DHT22;67442;44.570;18.610;2024-03-02T10:00:30;16.10;63.90
78184;DHT22;67442;44.570;18.610;2024-03-02T10:02:58;16.20;65.40
78184;DHT22;67442;44.570;18.610;2024-03-02T10:05:27;16.30;64.70
78184;DHT22;67442;44.570;18.610;2024-03-02T10:08:02;16.40;63.60
78184;DHT22;67442;44.570;18.610;2024-03-02T10:10:39;16.50;62.60
78184;DHT22;67442;44.570;18.610;2024-03-02T10:13:13;16.50;61.40
78184;DHT22;67442;44.570;18.610;2024-03-02T10:15:40;16.60;61.50
78184;DHT22;67442;44.570;18.610;2024-03-02T10:18:12;16.80;63.50
78184;DHT22;67442;44.570;18.610;2024-03-02T10:20:41;17.00;59.60
78184;DHT22;67442;44.570;18.610;2024-03-02T10:23:14;17.10;61.10
78184;DHT22;67442;44.570;18.610;2024-03-02T10:25:42;17.20;58.20
78184;DHT22;67442;44.570;18.610;2024-03-02T10:28:14;17.10;57.70
78184;DHT22;67442;44.570;18.610;2024-03-02T10:30:42;17.10;55.50
78184;DHT22;67442;44.570;18.610;2024-03-02T10:33:09;16.90;57.30
78184;DHT22;67442;44.570;18.610;2024-03-02T10:35:41;16.90;58.60
78184;DHT22;67442;44.570;18.610;2024-03-02T10:38:13;17.00;58.40
78184;DHT22;67442;44.570;18.610;2024-03-02T10:40:47;17.10;56.80
78184;DHT22;67442;44.570;18.610;2024-03-02T10:43:18;17.10;55.70
78184;DHT22;67442;44.570;18.610;2024-03-02T10:45:47;17.30;57.20
78184;DHT22;67442;44.570;18.610;2024-03-02T10:48:17;17.30;56.90
78184;DHT22;67442;44.570;18.610;2024-03-02T10:50:45;17.20;54.10
78184;DHT22;67442;44.570;18.610;2024-03-02T10:53:13;17.30;56.10
78184;DHT22;67442;44.570;18.610;2024-03-02T10:55:44;17.30;56.20
78184;DHT22;67442;44.570;18.610;2024-03-02T10:58:12;17.30;56.70
78184;DHT22;67442;44.570;18.610;2024-03-02T11:00:41;17.50;54.90
78184;DHT22;67442;44.570;18.610;2024-03-02T11:03:10;17.60;54.80
78184;DHT22;67442;44.570;18.610;2024-03-02T11:05:40;17.70;55.40
78184;DHT22;67442;44.570;18.610;2024-03-02T11:08:08;17.80;53.90
78184;DHT22;67442;44.570;18.610;2024-03-02T11:13:14;18.00;53.40
78184;DHT22;67442;44.570;18.610;2024-03-02T11:15:44;17.90;53.60
78184;DHT22;67442;44.570;18.610;2024-03-02T11:18:12;18.00;51.90
78184;DHT22;67442;44.570;18.610;2024-03-02T11:20:44;18.00;52.40
78184;DHT22;67442;44.570;18.610;2024-03-02T11:23:15;18.00;51.70
78184;DHT22;67442;44.570;18.610;2024-03-02T11:25:43;17.90;52.00
78184;DHT22;67442;44.570;18.610;2024-03-02T11:28:16;18.10;52.00
78184;DHT22;67442;44.570;18.610;2024-03-02T11:31:06;17.90;50.10
78184;DHT22;67442;44.570;18.610;2024-03-02T11:33:33;17.90;52.80
78184;DHT22;67442;44.570;18.610;2024-03-02T11:36:07;18.10;50.30
78184;DHT22;67442;44.570;18.610;2024-03-02T11:38:36;18.20;51.70
78184;DHT22;67442;44.570;18.610;2024-03-02T11:41:07;18.40;48.90
78184;DHT22;67442;44.570;18.610;2024-03-02T11:43:38;18.20;48.20
78184;DHT22;67442;44.570;18.610;2024-03-02T11:46:26;18.20;49.60
78184;DHT22;67442;44.570;18.610;2024-03-02T11:48:57;18.30;48.20
78184;DHT22;67442;44.570;18.610;2024-03-02T11:51:28;18.20;49.90
78184;DHT22;67442;44.570;18.610;2024-03-02T11:54:01;18.30;49.20
78184;DHT22;67442;44.570;18.610;2024-03-02T11:56:31;18.40;49.10
78184;DHT22;67442;44.570;18.610;2024-03-02T11:58:59;18.60;48.70
78184;DHT22;67442;44.570;18.610;2024-03-02T12:01:27;18.50;48.40
78184;DHT22;67442;44.570;18.610;2024-03-02T12:03:59;18.60;48.30
78184;DHT22;67442;44.570;18.610;2024-03-02T12:06:28;18.60;48.40
78184;DHT22;67442;44.570;18.610;2024-03-02T12:08:56;18.60;49.20
78184;DHT22;67442;44.570;18.610;2024-03-02T12:11:23;18.70;49.30
78184;DHT22;67442;44.570;18.610;2024-03-02T12:13:55;18.60;48.90
78184;DHT22;67442;44.570;18.610;2024-03-02T12:16:25;18.70;50.80
78184;DHT22;67442;44.570;18.610;2024-03-02T12:18:53;19.00;51.10
78184;DHT22;67442;44.570;18.610;2024-03-02T12:21:23;19.20;50.30
78184;DHT22;67442;44.570;18.610;2024-03-02T12:23:54;19.40;46.90
78184;DHT22;67442;44.570;18.610;2024-03-02T12:26:23;19.40;45.90
78184;DHT22;67442;44.570;18.610;2024-03-02T12:28:51;19.30;45.50
78184;DHT22;67442;44.570;18.610;2024-03-02T12:31:18;19.20;46.30
78184;DHT22;67442;44.570;18.610;2024-03-02T12:33:47;19.10;47.90
78184;DHT22;67442;44.570;18.610;2024-03-02T12:36:14;19.00;45.90
78184;DHT22;67442;44.570;18.610;2024-03-02T12:38:45;18.90;46.70
78184;DHT22;67442;44.570;18.610;2024-03-02T12:41:16;18.80;46.80
78184;DHT22;67442;44.570;18.610;2024-03-02T12:43:44;18.70;49.00
78184;DHT22;67442;44.570;18.610;2024-03-02T12:46:15;18.70;48.30
78184;DHT22;67442;44.570;18.610;2024-03-02T12:48:47;18.60;48.00
78184;DHT22;67442;44.570;18.610;2024-03-02T12:51:14;18.50;47.90
78184;DHT22;67442;44.570;18.610;2024-03-02T12:53:42;18.40;48.60
78184;DHT22;67442;44.570;18.610;2024-03-02T12:56:10;18.30;49.20
78184;DHT22;67442;44.570;18.610;2024-03-02T12:58:40;18.40;49.40
78184;DHT22;67442;44.570;18.610;2024-03-02T13:01:08;18.70;49.50
78184;DHT22;67442;44.570;18.610;2024-03-02T13:03:38;19.00;48.80
78184;DHT22;67442;44.570;18.610;2024-03-02T13:06:06;19.20;48.70
78184;DHT22;67442;44.570;18.610;2024-03-02T13:08:37;19.50;49.20
78184;DHT22;67442;44.570;18.610;2024-03-02T13:11:10;19.70;46.70
78184;DHT22;67442;44.570;18.610;2024-03-02T13:13:38;20.10;45.50
78184;DHT22;67442;44.570;18.610;2024-03-02T13:16:12;20.10;46.30
78184;DHT22;67442;44.570;18.610;2024-03-02T13:18:39;19.80;45.60
78184;DHT22;67442;44.570;18.610;2024-03-02T13:21:26;19.50;47.40
78184;DHT22;67442;44.570;18.610;2024-03-02T13:23:53;19.30;45.90
78184;DHT22;67442;44.570;18.610;2024-03-02T13:26:25;19.20;44.10
78184;DHT22;67442;44.570;18.610;2024-03-02T13:28:52;19.20;46.00
78184;DHT22;67442;44.570;18.610;2024-03-02T13:31:19;19.30;46.40
78184;DHT22;67442;44.570;18.610;2024-03-02T13:33:47;19.30;45.70
78184;DHT22;67442;44.570;18.610;2024-03-02T13:36:14;19.50;46.60
78184;DHT22;67442;44.570;18.610;2024-03-02T13:38:41;19.60;45.80
78184;DHT22;67442;44.570;18.610;2024-03-02T13:41:11;19.80;43.00
78184;DHT22;67442;44.570;18.610;2024-03-02T13:43:39;19.80;43.00
78184;DHT22;67442;44.570;18.610;2024-03-02T13:46:07;19.90;42.80
78184;DHT22;67442;44.570;18.610;2024-03-02T13:48:36;19.90;44.20
78184;DHT22;67442;44.570;18.610;2024-03-02T13:51:03;19.80;46.30
78184;DHT22;67442;44.570;18.610;2024-03-02T13:53:32;19.60;43.70
78184;DHT22;67442;44.570;18.610;2024-03-02T13:56:03;19.30;44.40
78184;DHT22;67442;44.570;18.610;2024-03-02T13:58:31;19.20;44.80
78184;DHT22;67442;44.570;18.610;2024-03-02T14:00:59;19.20;43.90
78184;DHT22;67442;44.570;18.610;2024-03-02T14:03:26;19.10;45.00
78184;DHT22;67442;44.570;18.610;2024-03-02T14:05:58;19.20;44.80
78184;DHT22;67442;44.570;18.610;2024-03-02T14:08:25;19.30;44.60
78184;DHT22;67442;44.570;18.610;2024-03-02T14:10:57;19.40;44.60
78184;DHT22;67442;44.570;18.610;2024-03-02T14:13:28;19.80;44.60
78184;DHT22;67442;44.570;18.610;2024-03-02T14:15:56;20.20;43.70
78184;DHT22;67442;44.570;18.610;2024-03-02T14:18:24;20.30;43.40
78184;DHT22;67442;44.570;18.610;2024-03-02T14:20:51;20.30;43.20
78184;DHT22;67442;44.570;18.610;2024-03-02T14:23:19;20.10;41.60
78184;DHT22;67442;44.570;18.610;2024-03-02T14:25:51;19.80;43.10
78184;DHT22;67442;44.570;18.610;2024-03-02T14:28:18;19.70;43.60
78184;DHT22;67442;44.570;18.610;2024-03-02T14:30:46;19.80;43.40
78184;DHT22;67442;44.570;18.610;2024-03-02T14:33:13;19.80;43.60
78184;DHT22;67442;44.570;18.610;2024-03-02T14:35:41;19.40;45.00
78184;DHT22;67442;44.570;18.610;2024-03-02T14:38:09;19.10;45.70
78184;DHT22;67442;44.570;18.610;2024-03-02T14:40:36;19.00;44.80
78184;DHT22;67442;44.570;18.610;2024-03-02T14:43:04;19.10;46.10
78184;DHT22;67442;44.570;18.610;2024-03-02T14:45:36;19.00;49.70
78184;DHT22;67442;44.570;18.610;2024-03-02T14:48:05;18.50;51.50
78184;DHT22;67442;44.570;18.610;2024-03-02T14:50:33;18.10;52.50
78184;DHT22;67442;44.570;18.610;2024-03-02T14:53:01;17.90;53.90
78184;DHT22;67442;44.570;18.610;2024-03-02T14:55:29;17.70;54.80
78184;DHT22;67442;44.570;18.610;2024-03-02T14:57:57;17.70;53.90
78184;DHT22;67442;44.570;18.610;2024-03-02T15:00:24;17.60;54.00
78184;DHT22;67442;44.570;18.610;2024-03-02T15:02:52;17.70;54.30
78184;DHT22;67442;44.570;18.610;2024-03-02T15:05:19;17.50;55.50
78184;DHT22;67442;44.570;18.610;2024-03-02T15:07:47;17.50;54.80
78184;DHT22;67442;44.570;18.610;2024-03-02T15:10:15;17.40;55.60
78184;DHT22;67442;44.570;18.610;2024-03-02T15:12:46;17.40;55.90
78184;DHT22;67442;44.570;18.610;2024-03-02T15:15:14;17.30;56.10
78184;DHT22;67442;44.570;18.610;2024-03-02T15:17:42;17.10;56.30
78184;DHT22;67442;44.570;18.610;2024-03-02T15:20:12;17.10;56.40
78184;DHT22;67442;44.570;18.610;2024-03-02T15:22:40;17.00;57.30
78184;DHT22;67442;44.570;18.610;2024-03-02T15:25:11;17.00;57.80
78184;DHT22;67442;44.570;18.610;2024-03-02T15:27:38;17.00;58.10
78184;DHT22;67442;44.570;18.610;2024-03-02T15:30:07;16.70;58.70
78184;DHT22;67442;44.570;18.610;2024-03-02T15:32:35;16.70;59.60
78184;DHT22;67442;44.570;18.610;2024-03-02T15:35:05;16.60;59.50
78184;DHT22;67442;44.570;18.610;2024-03-02T15:37:33;16.70;60.10
78184;DHT22;67442;44.570;18.610;2024-03-02T15:40:05;16.80;61.20
78184;DHT22;67442;44.570;18.610;2024-03-02T15:42:35;16.60;60.90
78184;DHT22;67442;44.570;18.610;2024-03-02T15:45:01;16.60;61.70
78184;DHT22;67442;44.570;18.610;2024-03-02T15:47:29;16.50;63.80
78184;DHT22;67442;44.570;18.610;2024-03-02T15:49:56;16.40;64.00
78184;DHT22;67442;44.570;18.610;2024-03-02T15:52:23;16.20;66.10
78184;DHT22;67442;44.570;18.610;2024-03-02T15:54:51;16.30;65.90
78184;DHT22;67442;44.570;18.610;2024-03-02T15:57:22;16.40;65.90
78184;DHT22;67442;44.570;18.610;2024-03-02T15:59:50;16.50;65.90
78184;DHT22;67442;44.570;18.610;2024-03-02T16:02:22;16.30;67.70
78184;DHT22;67442;44.570;18.610;2024-03-02T16:04:52;16.00;69.30
78184;DHT22;67442;44.570;18.610;2024-03-02T16:07:19;16.00;70.40
78184;DHT22;67442;44.570;18.610;2024-03-02T16:09:47;16.10;71.00
78184;DHT22;67442;44.570;18.610;2024-03-02T16:12:15;16.10;71.60
78184;DHT22;67442;44.570;18.610;2024-03-02T16:14:46;16.10;72.10
78184;DHT22;67442;44.570;18.610;2024-03-02T16:17:14;16.00;71.70
78184;DHT22;67442;44.570;18.610;2024-03-02T16:19:41;15.90;72.20
78184;DHT22;67442;44.570;18.610;2024-03-02T16:22:13;15.90;73.20
78184;DHT22;67442;44.570;18.610;2024-03-02T16:24:41;15.60;77.50
78184;DHT22;67442;44.570;18.610;2024-03-02T16:27:08;15.30;79.60
78184;DHT22;67442;44.570;18.610;2024-03-02T16:29:35;15.10;80.50
78184;DHT22;67442;44.570;18.610;2024-03-02T16:32:07;15.00;83.30
78184;DHT22;67442;44.570;18.610;2024-03-02T16:34:34;14.80;86.80
78184;DHT22;67442;44.570;18.610;2024-03-02T16:37:02;14.60;89.50
78184;DHT22;67442;44.570;18.610;2024-03-02T16:39:30;14.50;91.10
78184;DHT22;67442;44.570;18.610;2024-03-02T16:41:58;14.30;92.70
78184;DHT22;67442;44.570;18.610;2024-03-02T16:44:25;14.40;93.50
78184;DHT22;67442;44.570;18.610;2024-03-02T16:46:57;14.40;95.10
78184;DHT22;67442;44.570;18.610;2024-03-02T16:49:25;14.20;94.90
78184;DHT22;67442;44.570;18.610;2024-03-02T16:51:52;14.00;96.10
78184;DHT22;67442;44.570;18.610;2024-03-02T16:54:20;13.90;96.30
78184;DHT22;67442;44.570;18.610;2024-03-02T16:56:48;13.70;97.60
78184;DHT22;67442;44.570;18.610;2024-03-02T16:59:20;13.60;98.90
78184;DHT22;67442;44.570;18.610;2024-03-02T17:01:47;13.60;99.10
78184;DHT22;67442;44.570;18.610;2024-03-02T17:04:15;13.80;98.80
78184;DHT22;67442;44.570;18.610;2024-03-02T17:06:46;14.00;98.90
78184;DHT22;67442;44.570;18.610;2024-03-02T17:09:17;13.60;99.70
78184;DHT22;67442;44.570;18.610;2024-03-02T17:11:45;13.70;99.90
78184;DHT22;67442;44.570;18.610;2024-03-02T17:14:13;13.30;99.90
78184;DHT22;67442;44.570;18.610;2024-03-02T17:16:41;13.20;99.90
78184;DHT22;67442;44.570;18.610;2024-03-02T17:19:08;13.10;99.90
78184;DHT22;67442;44.570;18.610;2024-03-02T17:21:35;13.00;99.90
78184;DHT22;67442;44.570;18.610;2024-03-02T17:24:02;12.60;99.90
78184;DHT22;67442;44.570;18.610;2024-03-02T17:26:30;12.50;99.90
78184;DHT22;67442;44.570;18.610;2024-03-02T17:28:58;12.50;99.90
78184;DHT22;67442;44.570;18.610;2024-03-02T17:31:25;12.50;99.90
78184;DHT22;67442;44.570;18.610;2024-03-02T17:33:56;12.40;99.90
78184;DHT22;67442;44.570;18.610;2024-03-02T17:36:24;12.20;99.90
78184;DHT22;67442;44.570;18.610;2024-03-02T17:38:55;12.10;99.90
78184;DHT22;67442;44.570;18.610;2024-03-02T17:41:23;12.00;99.90
78184;DHT22;67442;44.570;18.610;2024-03-02T17:43:51;11.70;99.90
78184;DHT22;67442;44.570;18.610;2024-03-02T17:46:18;11.50;99.90
78184;DHT22;67442;44.570;18.610;2024-03-02T17:48:46;11.20;99.90
78184;DHT22;67442;44.570;18.610;2024-03-02T17:51:15;11.00;99.90
78184;DHT22;67442;44.570;18.610;2024-03-02T17:53:43;10.90;99.90
78184;DHT22;67442;44.570;18.610;2024-03-02T17:56:11;10.90;99.90
78184;DHT22;67442;44.570;18.610;2024-03-02T17:58:39;11.10;99.90
78184;DHT22;67442;44.570;18.610;2024-03-02T18:01:07;11.20;99.90
78184;DHT22;67442;44.570;18.610;2024-03-02T18:03:35;11.00;99.90
78184;DHT22;67442;44.570;18.610;2024-03-02T18:06:06;10.90;99.90
78184;DHT22;67442;44.570;18.610;2024-03-02T18:08:38;10.90;99.90
78184;DHT22;67442;44.570;18.610;2024-03-02T18:11:09;11.00;99.90
78184;DHT22;67442;44.570;18.610;2024-03-02T18:13:37;11.30;99.90
78184;DHT22;67442;44.570;18.610;2024-03-02T18:16:05;11.40;99.90
78184;DHT22;67442;44.570;18.610;2024-03-02T18:18:33;11.50;99.90
78184;DHT22;67442;44.570;18.610;2024-03-02T18:21:01;11.50;99.90
78184;DHT22;67442;44.570;18.610;2024-03-02T18:23:29;11.30;99.90
78184;DHT22;67442;44.570;18.610;2024-03-02T18:26:00;11.40;99.90
78184;DHT22;67442;44.570;18.610;2024-03-02T18:28:27;11.60;99.90
78184;DHT22;67442;44.570;18.610;2024-03-02T18:30:55;11.70;99.90
78184;DHT22;67442;44.570;18.610;2024-03-02T18:33:27;11.70;99.90
78184;DHT22;67442;44.570;18.610;2024-03-02T18:35:55;11.60;99.90
78184;DHT22;67442;44.570;18.610;2024-03-02T18:38:23;11.70;99.90
78184;DHT22;67442;44.570;18.610;2024-03-02T18:40:51;11.60;99.90
78184;DHT22;67442;44.570;18.610;2024-03-02T18:43:18;11.50;99.90
78184;DHT22;67442;44.570;18.610;2024-03-02T18:45:46;11.40;99.90
78184;DHT22;67442;44.570;18.610;2024-03-02T18:48:14;11.20;99.90
78184;DHT22;67442;44.570;18.610;2024-03-02T18:50:45;11.10;99.90
78184;DHT22;67442;44.570;18.610;2024-03-02T18:53:13;11.20;99.90
78184;DHT22;67442;44.570;18.610;2024-03-02T18:55:40;11.20;99.90
78184;DHT22;67442;44.570;18.610;2024-03-02T18:58:08;11.20;99.90
78184;DHT22;67442;44.570;18.610;2024-03-02T19:00:36;11.20;99.90
78184;DHT22;67442;44.570;18.610;2024-03-02T19:03:04;11.20;99.90
78184;DHT22;67442;44.570;18.610;2024-03-02T19:05:31;11.10;99.90
78184;DHT22;67442;44.570;18.610;2024-03-02T19:07:59;11.10;99.90
78184;DHT22;67442;44.570;18.610;2024-03-02T19:10:31;10.90;99.90
78184;DHT22;67442;44.570;18.610;2024-03-02T19:12:59;11.00;99.90
78184;DHT22;67442;44.570;18.610;2024-03-02T19:15:26;11.10;99.90
78184;DHT22;67442;44.570;18.610;2024-03-02T19:17:53;11.10;99.90
78184;DHT22;67442;44.570;18.610;2024-03-02T19:20:21;11.20;99.90
78184;DHT22;67442;44.570;18.610;2024-03-02T19:22:50;11.30;99.90
78184;DHT22;67442;44.570;18.610;2024-03-02T19:25:17;11.10;99.90
78184;DHT22;67442;44.570;18.610;2024-03-02T19:27:47;10.80;99.90
78184;DHT22;67442;44.570;18.610;2024-03-02T19:30:14;10.70;99.90
78184;DHT22;67442;44.570;18.610;2024-03-02T19:32:41;10.60;99.90
78184;DHT22;67442;44.570;18.610;2024-03-02T19:35:13;10.60;99.90
78184;DHT22;67442;44.570;18.610;2024-03-02T19:37:40;10.60;99.90
78184;DHT22;67442;44.570;18.610;2024-03-02T19:40:08;10.50;99.90
78184;DHT22;67442;44.570;18.610;2024-03-02T19:42:36;10.30;99.90
78184;DHT22;67442;44.570;18.610;2024-03-02T19:45:04;10.20;99.90
78184;DHT22;67442;44.570;18.610;2024-03-02T19:47:32;10.20;99.90
78184;DHT22;67442;44.570;18.610;2024-03-02T19:50:03;10.00;99.90
78184;DHT22;67442;44.570;18.610;2024-03-02T19:52:32;9.70;99.90
78184;DHT22;67442;44.570;18.610;2024-03-02T19:54:59;9.60;99.90
78184;DHT22;67442;44.570;18.610;2024-03-02T19:57:31;9.40;99.90
78184;DHT22;67442;44.570;18.610;2024-03-02T20:00:02;9.60;99.90
78184;DHT22;67442;44.570;18.610;2024-03-02T20:02:33;9.50;99.90
78184;DHT22;67442;44.570;18.610;2024-03-02T20:05:05;9.40;99.90
78184;DHT22;67442;44.570;18.610;2024-03-02T20:07:33;9.40;99.90
78184;DHT22;67442;44.570;18.610;2024-03-02T20:10:03;9.40;99.90
78184;DHT22;67442;44.570;18.610;2024-03-02T20:12:33;9.40;99.90
78184;DHT22;67442;44.570;18.610;2024-03-02T20:15:00;9.40;99.90
78184;DHT22;67442;44.570;18.610;2024-03-02T20:17:28;9.30;99.90
78184;DHT22;67442;44.570;18.610;2024-03-02T20:20:00;9.60;99.90
78184;DHT22;67442;44.570;18.610;2024-03-02T20:22:32;9.90;99.90
78184;DHT22;67442;44.570;18.610;2024-03-02T20:25:00;10.00;99.90
78184;DHT22;67442;44.570;18.610;2024-03-02T20:27:28;10.10;99.90
78184;DHT22;67442;44.570;18.610;2024-03-02T20:29:59;10.10;99.90
78184;DHT22;67442;44.570;18.610;2024-03-02T20:32:26;10.00;99.90
78184;DHT22;67442;44.570;18.610;2024-03-02T20:34:53;10.20;99.90
78184;DHT22;67442;44.570;18.610;2024-03-02T20:37:21;9.90;99.90
78184;DHT22;67442;44.570;18.610;2024-03-02T20:39:50;9.90;99.90
78184;DHT22;67442;44.570;18.610;2024-03-02T20:42:18;9.80;99.90
78184;DHT22;67442;44.570;18.610;2024-03-02T20:44:50;9.90;99.90
78184;DHT22;67442;44.570;18.610;2024-03-02T20:47:18;10.00;99.90
78184;DHT22;67442;44.570;18.610;2024-03-02T20:49:45;10.10;99.90
78184;DHT22;67442;44.570;18.610;2024-03-02T20:52:12;10.10;99.90
78184;DHT22;67442;44.570;18.610;2024-03-02T20:54:40;10.00;99.90